sensor_id;sensor_type;location;lat;lon;timestamp;pressure;altitude;pressure_sealevel;temperature;humidity
41312;BME280;27061;41.648;24.568;2023-04-05T00:02:26;84929.63;;;6.55;75.09
41312;BME280;27061;41.648;24.568;2023-04-05T00:04:58;84928.31;;;6.50;75.90
41312;BME280;27061;41.648;24.568;2023-04-05T00:07:26;84928.19;;;6.58;75.79
41312;BME280;27061;41.648;24.568;2023-04-05T00:09:53;84917.28;;;6.52;75.52
41312;BME280;27061;41.648;24.568;2023-04-05T00:12:20;84930.91;;;6.60;75.47
41312;BME280;27061;41.648;24.568;2023-04-05T00:14:48;84924.19;;;6.51;76.46
41312;BME280;27061;41.648;24.568;2023-04-05T00:17:15;84892.75;;;6.36;76.36
41312;BME280;27061;41.648;24.568;2023-04-05T00:19:43;84905.81;;;6.38;76.03
41312;BME280;27061;41.648;24.568;2023-04-05T00:22:10;84852.03;;;6.00;75.40
41312;BME280;27061;41.648;24.568;2023-04-05T00:24:37;84935.13;;;6.55;75.08
41312;BME280;27061;41.648;24.568;2023-04-05T00:27:07;84902.44;;;6.33;75.26
41312;BME280;27061;41.648;24.568;2023-04-05T00:29:34;84902.44;;;6.33;75.90
41312;BME280;27061;41.648;24.568;2023-04-05T00:32:02;84896.31;;;6.29;75.46
41312;BME280;27061;41.648;24.568;2023-04-05T00:34:30;84924.16;;;6.53;75.48
41312;BME280;27061;41.648;24.568;2023-04-05T00:36:59;84931.72;;;6.53;75.36
41312;BME280;27061;41.648;24.568;2023-04-05T00:39:27;84900.38;;;6.34;75.17
41312;BME280;27061;41.648;24.568;2023-04-05T00:41:54;84936.50;;;6.56;75.06
41312;BME280;27061;41.648;24.568;2023-04-05T00:44:21;84924.13;;;6.55;74.70
41312;BME280;27061;41.648;24.568;2023-04-05T00:46:49;84871.06;;;6.16;74.69
41312;BME280;27061;41.648;24.568;2023-04-05T00:49:21;84931.03;;;6.54;74.59
41312;BME280;27061;41.648;24.568;2023-04-05T00:51:48;84928.94;;;6.55;73.95
41312;BME280;27061;41.648;24.568;2023-04-05T00:54:17;84902.41;;;6.35;73.78
41312;BME280;27061;41.648;24.568;2023-04-05T00:56:45;84811.25;;;5.65;73.97
41312;BME280;27061;41.648;24.568;2023-04-05T00:59:12;84890.16;;;6.26;73.93
41312;BME280;27061;41.648;24.568;2023-04-05T01:01:40;84918.03;;;6.47;74.46
41312;BME280;27061;41.648;24.568;2023-04-05T01:04:08;84857.44;;;6.06;75.02
41312;BME280;27061;41.648;24.568;2023-04-05T01:11:56;84929.13;;;6.43;76.26
41312;BME280;27061;41.648;24.568;2023-04-05T01:14:24;84935.19;;;6.49;76.19
41312;BME280;27061;41.648;24.568;2023-04-05T01:16:51;84931.09;;;6.48;75.68
41312;BME280;27061;41.648;24.568;2023-04-05T01:19:27;84905.13;;;6.37;75.14
41312;BME280;27061;41.648;24.568;2023-04-05T01:22:15;84931.03;;;6.54;75.07
41312;BME280;27061;41.648;24.568;2023-04-05T01:30:40;84933.84;;;6.46;76.54
41312;BME280;27061;41.648;24.568;2023-04-05T01:33:36;84933.84;;;6.46;76.23
41312;BME280;27061;41.648;24.568;2023-04-05T01:38:38;84910.69;;;6.33;75.93
41312;BME280;27061;41.648;24.568;2023-04-05T01:41:11;84915.53;;;6.31;75.40
41312;BME280;27061;41.648;24.568;2023-04-05T01:43:38;84921.81;;;6.23;77.05
41312;BME280;27061;41.648;24.568;2023-04-05T01:46:05;84933.19;;;6.46;76.35
41312;BME280;27061;41.648;24.568;2023-04-05T01:48:32;84912.09;;;6.30;75.55
41312;BME280;27061;41.648;24.568;2023-04-05T01:50:59;84931.22;;;6.38;75.99
41312;BME280;27061;41.648;24.568;2023-04-05T01:53:26;84936.59;;;6.48;75.66
41312;BME280;27061;41.648;24.568;2023-04-05T01:55:59;84901.28;;;6.16;75.81
41312;BME280;27061;41.648;24.568;2023-04-05T01:58:27;84944.84;;;6.46;76.02
41312;BME280;27061;41.648;24.568;2023-04-05T02:00:55;84929.22;;;6.35;76.01
41312;BME280;27061;41.648;24.568;2023-04-05T02:03:23;84921.72;;;6.29;76.04
41312;BME280;27061;41.648;24.568;2023-04-05T02:05:51;84903.94;;;6.24;75.70
41312;BME280;27061;41.648;24.568;2023-04-05T02:08:18;84938.06;;;6.41;75.58
41312;BME280;27061;41.648;24.568;2023-04-05T02:10:47;84924.38;;;6.37;76.00
41312;BME280;27061;41.648;24.568;2023-04-05T02:13:14;84886.31;;;6.05;75.80
41312;BME280;27061;41.648;24.568;2023-04-05T02:15:47;84944.84;;;6.46;75.79
41312;BME280;27061;41.648;24.568;2023-04-05T02:18:15;84932.69;;;6.33;76.02
41312;BME280;27061;41.648;24.568;2023-04-05T02:20:51;84949.09;;;6.37;76.45
41312;BME280;27061;41.648;24.568;2023-04-05T02:23:18;84942.28;;;6.34;76.58
41312;BME280;27061;41.648;24.568;2023-04-05T02:25:45;84947.00;;;6.40;76.41
41312;BME280;27061;41.648;24.568;2023-04-05T02:28:13;84895.28;;;6.03;75.99
41312;BME280;27061;41.648;24.568;2023-04-05T02:30:40;84947.13;;;6.32;77.26
41312;BME280;27061;41.648;24.568;2023-04-05T02:33:09;84928.75;;;6.18;77.71
41312;BME280;27061;41.648;24.568;2023-04-05T02:35:36;84928.81;;;6.14;77.10
41312;BME280;27061;41.648;24.568;2023-04-05T02:38:03;84943.59;;;6.37;76.21
41312;BME280;27061;41.648;24.568;2023-04-05T02:40:33;84944.38;;;6.32;75.88
41312;BME280;27061;41.648;24.568;2023-04-05T02:43:00;84901.63;;;5.85;76.51
41312;BME280;27061;41.648;24.568;2023-04-05T02:45:27;84914.47;;;6.05;76.29
41312;BME280;27061;41.648;24.568;2023-04-05T02:47:57;84936.91;;;6.24;76.17
41312;BME280;27061;41.648;24.568;2023-04-05T02:50:28;84867.44;;;5.74;76.05
41312;BME280;27061;41.648;24.568;2023-04-05T02:52:55;84951.94;;;6.31;76.63
41312;BME280;27061;41.648;24.568;2023-04-05T02:55:23;84954.66;;;6.33;76.49
41312;BME280;27061;41.648;24.568;2023-04-05T02:57:50;84944.44;;;6.25;75.67
41312;BME280;27061;41.648;24.568;2023-04-05T03:00:28;84954.66;;;6.33;74.84
41312;BME280;27061;41.648;24.568;2023-04-05T03:03:00;84954.00;;;6.33;74.48
41312;BME280;27061;41.648;24.568;2023-04-05T03:05:27;84901.53;;;5.96;74.31
41312;BME280;27061;41.648;24.568;2023-04-05T03:07:56;84928.06;;;6.15;75.19
41312;BME280;27061;41.648;24.568;2023-04-05T03:10:28;84922.66;;;6.09;76.00
41312;BME280;27061;41.648;24.568;2023-04-05T03:13:12;84943.72;;;6.29;76.33
41312;BME280;27061;41.648;24.568;2023-04-05T03:15:40;84956.78;;;6.27;76.78
41312;BME280;27061;41.648;24.568;2023-04-05T03:18:11;84947.97;;;6.20;76.69
41312;BME280;27061;41.648;24.568;2023-04-05T03:20:40;84960.22;;;6.27;76.67
41312;BME280;27061;41.648;24.568;2023-04-05T03:23:15;84954.06;;;6.27;76.37
41312;BME280;27061;41.648;24.568;2023-04-05T03:25:44;84906.53;;;5.79;77.50
41312;BME280;27061;41.648;24.568;2023-04-05T03:28:11;84953.47;;;6.18;77.76
41312;BME280;27061;41.648;24.568;2023-04-05T03:30:42;84941.88;;;6.13;77.15
41312;BME280;27061;41.648;24.568;2023-04-05T03:33:16;84939.81;;;6.12;76.67
41312;BME280;27061;41.648;24.568;2023-04-05T03:35:47;84893.59;;;5.71;76.28
41312;BME280;27061;41.648;24.568;2023-04-05T03:38:15;84958.31;;;6.15;76.87
41312;BME280;27061;41.648;24.568;2023-04-05T03:40:52;84895.56;;;5.77;77.00
41312;BME280;27061;41.648;24.568;2023-04-05T03:43:19;84917.38;;;5.93;76.71
41312;BME280;27061;41.648;24.568;2023-04-05T03:45:46;84906.47;;;5.83;76.91
41312;BME280;27061;41.648;24.568;2023-04-05T03:48:13;84949.47;;;6.09;77.27
41312;BME280;27061;41.648;24.568;2023-04-05T03:50:50;84971.31;;;6.21;76.51
41312;BME280;27061;41.648;24.568;2023-04-05T03:53:19;84959.06;;;6.10;76.00
41312;BME280;27061;41.648;24.568;2023-04-05T03:55:50;84961.72;;;6.18;76.54
41312;BME280;27061;41.648;24.568;2023-04-05T03:58:27;84961.78;;;6.14;77.28
41312;BME280;27061;41.648;24.568;2023-04-05T04:00:55;84968.56;;;6.19;77.23
41312;BME280;27061;41.648;24.568;2023-04-05T04:03:23;84961.69;;;6.22;76.83
41312;BME280;27061;41.648;24.568;2023-04-05T04:05:52;84882.78;;;5.55;76.43
41312;BME280;27061;41.648;24.568;2023-04-05T04:08:20;84944.09;;;5.99;77.17
41312;BME280;27061;41.648;24.568;2023-04-05T04:10:48;84969.94;;;6.20;76.90
41312;BME280;27061;41.648;24.568;2023-04-05T04:13:27;84871.25;;;5.42;77.03
41312;BME280;27061;41.648;24.568;2023-04-05T04:16:18;84973.47;;;6.12;77.46
41312;BME280;27061;41.648;24.568;2023-04-05T04:19:05;84948.31;;;5.87;76.94
41312;BME280;27061;41.648;24.568;2023-04-05T04:21:32;84943.00;;;5.71;78.41
41312;BME280;27061;41.648;24.568;2023-04-05T04:24:19;84950.34;;;5.93;77.74
41312;BME280;27061;41.648;24.568;2023-04-05T04:27:19;84975.53;;;6.12;77.85
41312;BME280;27061;41.648;24.568;2023-04-05T04:30:10;84975.56;;;6.08;76.88
41312;BME280;27061;41.648;24.568;2023-04-05T04:32:56;84976.25;;;6.10;76.33
41312;BME280;27061;41.648;24.568;2023-04-05T04:35:34;84974.22;;;6.05;77.82
41312;BME280;27061;41.648;24.568;2023-04-05T04:38:13;84978.34;;;6.06;77.81
41312;BME280;27061;41.648;24.568;2023-04-05T04:41:06;84949.03;;;5.84;78.46
41312;BME280;27061;41.648;24.568;2023-04-05T04:43:52;84990.69;;;6.07;78.24
41312;BME280;27061;41.648;24.568;2023-04-05T04:46:43;84933.44;;;5.68;78.40
41312;BME280;27061;41.648;24.568;2023-04-05T04:49:18;84983.81;;;6.10;78.27
41312;BME280;27061;41.648;24.568;2023-04-05T04:51:47;84990.69;;;6.09;77.82
41312;BME280;27061;41.648;24.568;2023-04-05T04:54:16;84995.59;;;5.98;78.60
41312;BME280;27061;41.648;24.568;2023-04-05T04:56:46;84981.91;;;5.94;78.72
41312;BME280;27061;41.648;24.568;2023-04-05T04:59:14;84996.19;;;6.09;78.51
41312;BME280;27061;41.648;24.568;2023-04-05T05:01:44;84999.03;;;6.01;77.65
41312;BME280;27061;41.648;24.568;2023-04-05T05:04:11;84997.69;;;5.96;79.04
41312;BME280;27061;41.648;24.568;2023-04-05T05:06:40;84954.03;;;5.65;79.33
41312;BME280;27061;41.648;24.568;2023-04-05T05:09:07;84949.91;;;5.68;78.75
41312;BME280;27061;41.648;24.568;2023-04-05T05:12:03;85015.44;;;6.07;78.29
41312;BME280;27061;41.648;24.568;2023-04-05T05:14:30;84957.34;;;5.78;78.11
41312;BME280;27061;41.648;24.568;2023-04-05T05:16:57;85011.25;;;6.14;78.02
41312;BME280;27061;41.648;24.568;2023-04-05T05:19:28;84977.84;;;5.89;78.25
41312;BME280;27061;41.648;24.568;2023-04-05T05:21:56;84968.25;;;5.86;78.23
41312;BME280;27061;41.648;24.568;2023-04-05T05:24:23;84960.75;;;5.80;76.95
41312;BME280;27061;41.648;24.568;2023-04-05T05:26:50;84986.66;;;6.02;76.40
41312;BME280;27061;41.648;24.568;2023-04-05T05:29:18;84951.25;;;5.69;75.87
41312;BME280;27061;41.648;24.568;2023-04-05T05:31:47;84976.56;;;5.80;77.47
41312;BME280;27061;41.648;24.568;2023-04-05T05:34:14;84954.63;;;5.74;78.74
41312;BME280;27061;41.648;24.568;2023-04-05T05:36:48;84986.75;;;5.92;77.91
41312;BME280;27061;41.648;24.568;2023-04-05T05:39:15;85000.97;;;6.10;77.48
41312;BME280;27061;41.648;24.568;2023-04-05T05:41:43;84937.69;;;5.55;78.50
41312;BME280;27061;41.648;24.568;2023-04-05T05:44:10;84974.44;;;5.84;79.83
41312;BME280;27061;41.648;24.568;2023-04-05T05:46:37;85005.88;;;6.02;79.25
41312;BME280;27061;41.648;24.568;2023-04-05T05:49:05;84997.75;;;5.87;80.31
41312;BME280;27061;41.648;24.568;2023-04-05T05:51:32;84970.41;;;5.75;80.77
41312;BME280;27061;41.648;24.568;2023-04-05T05:53:59;85005.06;;;6.13;80.94
41312;BME280;27061;41.648;24.568;2023-04-05T05:56:26;84994.13;;;6.07;81.03
41312;BME280;27061;41.648;24.568;2023-04-05T05:58:54;84963.34;;;5.95;80.95
41312;BME280;27061;41.648;24.568;2023-04-05T06:01:21;84992.13;;;6.04;81.00
41312;BME280;27061;41.648;24.568;2023-04-05T06:03:48;85005.69;;;6.18;80.91
41312;BME280;27061;41.648;24.568;2023-04-05T06:06:16;85007.69;;;6.23;81.46
41312;BME280;27061;41.648;24.568;2023-04-05T06:08:43;85010.38;;;6.30;81.48
41312;BME280;27061;41.648;24.568;2023-04-05T06:11:19;84966.78;;;5.95;81.93
41312;BME280;27061;41.648;24.568;2023-04-05T06:13:51;84909.63;;;5.48;81.74
41312;BME280;27061;41.648;24.568;2023-04-05T06:16:18;84971.59;;;5.97;81.75
41312;BME280;27061;41.648;24.568;2023-04-05T06:18:46;85016.53;;;6.30;81.29
41312;BME280;27061;41.648;24.568;2023-04-05T06:21:14;85018.56;;;6.34;81.39
41312;BME280;27061;41.648;24.568;2023-04-05T06:23:41;85012.41;;;6.31;81.21
41312;BME280;27061;41.648;24.568;2023-04-05T06:26:15;85022.00;;;6.34;80.84
41312;BME280;27061;41.648;24.568;2023-04-05T06:28:42;85019.19;;;6.38;79.87
41312;BME280;27061;41.648;24.568;2023-04-05T06:31:09;84967.31;;;6.10;79.09
41312;BME280;27061;41.648;24.568;2023-04-05T06:33:37;84970.19;;;6.00;79.47
41312;BME280;27061;41.648;24.568;2023-04-05T06:36:04;84991.94;;;6.20;79.60
41312;BME280;27061;41.648;24.568;2023-04-05T06:38:31;84994.72;;;6.16;79.77
41312;BME280;27061;41.648;24.568;2023-04-05T06:40:58;85030.81;;;6.45;80.08
41312;BME280;27061;41.648;24.568;2023-04-05T06:43:25;85027.44;;;6.38;80.25
41312;BME280;27061;41.648;24.568;2023-04-05T06:45:55;85023.31;;;6.39;79.98
41312;BME280;27061;41.648;24.568;2023-04-05T06:48:22;85020.06;;;6.24;79.94
41312;BME280;27061;41.648;24.568;2023-04-05T06:51:00;85037.03;;;6.41;79.78
41312;BME280;27061;41.648;24.568;2023-04-05T06:53:27;85007.09;;;6.15;79.32
41312;BME280;27061;41.648;24.568;2023-04-05T06:55:55;85019.31;;;6.28;79.46
41312;BME280;27061;41.648;24.568;2023-04-05T06:58:24;85043.19;;;6.46;80.10
41312;BME280;27061;41.648;24.568;2023-04-05T07:00:51;85048.06;;;6.37;80.24
41312;BME280;27061;41.648;24.568;2023-04-05T07:03:18;85011.25;;;6.12;80.02
41312;BME280;27061;41.648;24.568;2023-04-05T07:05:53;85014.69;;;6.14;79.86
41312;BME280;27061;41.648;24.568;2023-04-05T07:08:21;85034.41;;;6.29;79.76
41312;BME280;27061;41.648;24.568;2023-04-05T07:10:49;85050.13;;;6.39;79.88
41312;BME280;27061;41.648;24.568;2023-04-05T07:13:17;85056.25;;;6.43;79.15
41312;BME280;27061;41.648;24.568;2023-04-05T07:15:44;85047.44;;;6.33;79.09
41312;BME280;27061;41.648;24.568;2023-04-05T07:18:12;85056.28;;;6.39;79.32
41312;BME280;27061;41.648;24.568;2023-04-05T07:20:41;85057.69;;;6.36;79.82
41312;BME280;27061;41.648;24.568;2023-04-05T07:23:09;85073.44;;;6.44;79.70
41312;BME280;27061;41.648;24.568;2023-04-05T07:25:38;85014.03;;;6.08;79.35
41312;BME280;27061;41.648;24.568;2023-04-05T07:28:06;85068.66;;;6.40;79.60
41312;BME280;27061;41.648;24.568;2023-04-05T07:30:33;85024.34;;;6.07;79.44
41312;BME280;27061;41.648;24.568;2023-04-05T07:33:02;85054.94;;;6.38;78.81
41312;BME280;27061;41.648;24.568;2023-04-05T07:35:29;85022.25;;;6.14;78.72
41312;BME280;27061;41.648;24.568;2023-04-05T07:37:56;85071.97;;;6.51;78.70
41312;BME280;27061;41.648;24.568;2023-04-05T07:40:23;85024.94;;;6.16;79.45
41312;BME280;27061;41.648;24.568;2023-04-05T07:42:50;85035.94;;;6.16;79.99
41312;BME280;27061;41.648;24.568;2023-04-05T07:45:18;85073.34;;;6.50;80.03
41312;BME280;27061;41.648;24.568;2023-04-05T07:47:45;85079.56;;;6.46;79.65
41312;BME280;27061;41.648;24.568;2023-04-05T07:50:12;85081.66;;;6.46;79.86
41312;BME280;27061;41.648;24.568;2023-04-05T07:52:41;85082.28;;;6.52;80.07
41312;BME280;27061;41.648;24.568;2023-04-05T07:55:09;85045.44;;;6.25;80.12
41312;BME280;27061;41.648;24.568;2023-04-05T07:57:36;85081.00;;;6.45;79.66
41312;BME280;27061;41.648;24.568;2023-04-05T08:00:04;85076.88;;;6.42;79.51
41312;BME280;27061;41.648;24.568;2023-04-05T08:02:40;85089.84;;;6.52;79.79
41312;BME280;27061;41.648;24.568;2023-04-05T08:05:14;85081.75;;;6.38;80.36
41312;BME280;27061;41.648;24.568;2023-04-05T08:07:42;85066.09;;;6.24;80.03
41312;BME280;27061;41.648;24.568;2023-04-05T08:10:09;85079.63;;;6.44;80.87
41312;BME280;27061;41.648;24.568;2023-04-05T08:12:36;85062.47;;;6.40;81.13
41312;BME280;27061;41.648;24.568;2023-04-05T08:15:05;85084.94;;;6.60;81.50
41312;BME280;27061;41.648;24.568;2023-04-05T08:17:32;85091.00;;;6.69;79.97
41312;BME280;27061;41.648;24.568;2023-04-05T08:20:00;84981.28;;;5.87;79.99
41312;BME280;27061;41.648;24.568;2023-04-05T08:22:27;85104.06;;;6.69;81.39
41312;BME280;27061;41.648;24.568;2023-04-05T08:24:55;85035.09;;;6.30;82.08
41312;BME280;27061;41.648;24.568;2023-04-05T08:27:22;85070.56;;;6.54;82.07
41312;BME280;27061;41.648;24.568;2023-04-05T08:29:49;85096.50;;;6.69;82.96
41312;BME280;27061;41.648;24.568;2023-04-05T08:32:16;85087.69;;;6.60;82.88
41312;BME280;27061;41.648;24.568;2023-04-05T08:34:43;85048.13;;;6.33;83.02
41312;BME280;27061;41.648;24.568;2023-04-05T08:37:10;85097.84;;;6.74;82.71
41312;BME280;27061;41.648;24.568;2023-04-05T08:39:37;85074.00;;;6.56;82.44
41312;BME280;27061;41.648;24.568;2023-04-05T08:42:10;85111.47;;;6.84;81.57
41312;BME280;27061;41.648;24.568;2023-04-05T08:44:40;85077.91;;;6.72;81.20
41312;BME280;27061;41.648;24.568;2023-04-05T08:47:09;85063.72;;;6.53;82.00
41312;BME280;27061;41.648;24.568;2023-04-05T08:49:44;85095.75;;;6.77;82.59
41312;BME280;27061;41.648;24.568;2023-04-05T08:52:11;85112.09;;;6.89;83.12
41312;BME280;27061;41.648;24.568;2023-04-05T08:54:38;85117.56;;;6.91;82.74
41312;BME280;27061;41.648;24.568;2023-04-05T08:57:06;85112.16;;;6.85;82.10
41312;BME280;27061;41.648;24.568;2023-04-05T08:59:36;85116.19;;;6.92;82.63
41312;BME280;27061;41.648;24.568;2023-04-05T09:02:10;85091.66;;;6.74;81.36
41312;BME280;27061;41.648;24.568;2023-04-05T09:04:42;85073.34;;;6.52;81.92
41312;BME280;27061;41.648;24.568;2023-04-05T09:07:13;85079.44;;;6.60;82.29
41312;BME280;27061;41.648;24.568;2023-04-05T09:09:45;85121.66;;;6.96;81.94
41312;BME280;27061;41.648;24.568;2023-04-05T09:12:12;85085.50;;;6.69;81.52
41312;BME280;27061;41.648;24.568;2023-04-05T09:14:40;85095.75;;;6.77;81.34
41312;BME280;27061;41.648;24.568;2023-04-05T09:17:08;85107.28;;;6.89;79.94
41312;BME280;27061;41.648;24.568;2023-04-05T09:19:36;85076.69;;;6.58;79.84
41312;BME280;27061;41.648;24.568;2023-04-05T09:22:05;85112.94;;;6.77;80.59
41312;BME280;27061;41.648;24.568;2023-04-05T09:24:39;85128.56;;;6.91;79.45
41312;BME280;27061;41.648;24.568;2023-04-05T09:27:12;85121.69;;;6.92;79.74
41312;BME280;27061;41.648;24.568;2023-04-05T09:29:45;85131.94;;;6.97;80.20
41312;BME280;27061;41.648;24.568;2023-04-05T09:32:13;85049.41;;;6.40;80.15
41312;BME280;27061;41.648;24.568;2023-04-05T09:34:41;85088.25;;;6.69;80.24
41312;BME280;27061;41.648;24.568;2023-04-05T09:37:17;85079.44;;;6.58;79.44
41312;BME280;27061;41.648;24.568;2023-04-05T09:39:47;85078.06;;;6.59;79.88
41312;BME280;27061;41.648;24.568;2023-04-05T09:42:19;85106.69;;;6.81;80.07
41312;BME280;27061;41.648;24.568;2023-04-05T09:44:55;85132.00;;;6.91;80.80
41312;BME280;27061;41.648;24.568;2023-04-05T09:47:25;85077.47;;;6.51;81.44
41312;BME280;27061;41.648;24.568;2023-04-05T09:50:01;85099.97;;;6.68;80.91
41312;BME280;27061;41.648;24.568;2023-04-05T09:52:32;85078.03;;;6.64;81.16
41312;BME280;27061;41.648;24.568;2023-04-05T09:55:01;85080.09;;;6.63;81.39
41312;BME280;27061;41.648;24.568;2023-04-05T09:57:35;85133.91;;;7.05;81.55
41312;BME280;27061;41.648;24.568;2023-04-05T10:00:04;85142.09;;;7.11;80.92
41312;BME280;27061;41.648;24.568;2023-04-05T10:02:40;85122.31;;;6.98;80.72
41312;BME280;27061;41.648;24.568;2023-04-05T10:05:09;85110.75;;;6.88;80.63
41312;BME280;27061;41.648;24.568;2023-04-05T10:07:43;85101.16;;;6.85;80.56
41312;BME280;27061;41.648;24.568;2023-04-05T10:10:11;85138.63;;;7.13;80.53
41312;BME280;27061;41.648;24.568;2023-04-05T10:12:39;85099.81;;;6.80;80.34
41312;BME280;27061;41.648;24.568;2023-04-05T10:15:08;85103.84;;;6.89;79.62
41312;BME280;27061;41.648;24.568;2023-04-05T10:17:51;85146.84;;;7.19;79.63
41312;BME280;27061;41.648;24.568;2023-04-05T10:20:22;85092.81;;;6.89;79.53
41312;BME280;27061;41.648;24.568;2023-04-05T10:22:59;85141.94;;;7.23;79.53
41312;BME280;27061;41.648;24.568;2023-04-05T10:28:30;85127.69;;;7.09;79.08
41312;BME280;27061;41.648;24.568;2023-04-05T10:34:05;85141.97;;;7.21;80.13
41312;BME280;27061;41.648;24.568;2023-04-05T10:42:21;85143.47;;;7.12;79.90
41312;BME280;27061;41.648;24.568;2023-04-05T10:44:52;85155.03;;;7.21;80.16
41312;BME280;27061;41.648;24.568;2023-04-05T10:50:33;85131.16;;;7.07;78.40
41312;BME280;27061;41.648;24.568;2023-04-05T10:53:02;85150.19;;;7.25;78.21
41312;BME280;27061;41.648;24.568;2023-04-05T10:55:29;85131.06;;;7.11;78.83
41312;BME280;27061;41.648;24.568;2023-04-05T10:57:57;85125.66;;;7.05;78.65
41312;BME280;27061;41.648;24.568;2023-04-05T11:00:25;85126.97;;;7.10;78.81
41312;BME280;27061;41.648;24.568;2023-04-05T11:02:53;85158.47;;;7.23;78.51
41312;BME280;27061;41.648;24.568;2023-04-05T11:05:30;85154.97;;;7.29;77.20
41312;BME280;27061;41.648;24.568;2023-04-05T11:08:07;85113.56;;;6.82;78.50
41312;BME280;27061;41.648;24.568;2023-04-05T11:10:36;85153.78;;;7.12;77.90
41312;BME280;27061;41.648;24.568;2023-04-05T11:13:06;85130.50;;;7.03;78.26
41312;BME280;27061;41.648;24.568;2023-04-05T11:15:37;85158.53;;;7.19;78.22
41312;BME280;27061;41.648;24.568;2023-04-05T11:20:52;85159.22;;;7.20;79.45
41312;BME280;27061;41.648;24.568;2023-04-05T11:23:23;85099.88;;;6.76;80.15
41312;BME280;27061;41.648;24.568;2023-04-05T11:25:56;85152.94;;;7.23;81.35
41312;BME280;27061;41.648;24.568;2023-04-05T11:28:34;85158.44;;;7.25;79.25
41312;BME280;27061;41.648;24.568;2023-04-05T11:31:17;85095.69;;;6.81;80.16
41312;BME280;27061;41.648;24.568;2023-04-05T11:33:57;85155.69;;;7.25;81.39
41312;BME280;27061;41.648;24.568;2023-04-05T11:36:29;85151.53;;;7.26;81.82
41312;BME280;27061;41.648;24.568;2023-04-05T11:41:45;85145.38;;;7.24;81.14
41312;BME280;27061;41.648;24.568;2023-04-05T11:44:14;85147.41;;;7.27;81.11
41312;BME280;27061;41.648;24.568;2023-04-05T11:46:42;85134.44;;;7.20;81.47
41312;BME280;27061;41.648;24.568;2023-04-05T11:49:09;85063.56;;;6.67;81.25
41312;BME280;27061;41.648;24.568;2023-04-05T11:51:36;85101.00;;;6.97;80.88
41312;BME280;27061;41.648;24.568;2023-04-05T11:54:08;85150.63;;;7.42;80.97
41312;BME280;27061;41.648;24.568;2023-04-05T11:56:36;85128.25;;;7.19;80.69
41312;BME280;27061;41.648;24.568;2023-04-05T11:59:03;85137.06;;;7.28;80.82
41312;BME280;27061;41.648;24.568;2023-04-05T12:01:30;85156.31;;;7.30;81.04
41312;BME280;27061;41.648;24.568;2023-04-05T12:03:57;85094.81;;;6.96;81.46
41312;BME280;27061;41.648;24.568;2023-04-05T12:06:25;85145.88;;;7.39;81.18
41312;BME280;27061;41.648;24.568;2023-04-05T12:08:52;85140.41;;;7.34;81.60
41312;BME280;27061;41.648;24.568;2023-04-05T12:11:28;85152.69;;;7.44;81.74
41312;BME280;27061;41.648;24.568;2023-04-05T12:13:58;85150.56;;;7.50;81.72
41312;BME280;27061;41.648;24.568;2023-04-05T12:16:28;85129.41;;;7.34;81.63
41312;BME280;27061;41.648;24.568;2023-04-05T12:18:59;85093.38;;;6.99;79.82
41312;BME280;27061;41.648;24.568;2023-04-05T12:21:27;85142.38;;;7.42;78.94
41312;BME280;27061;41.648;24.568;2023-04-05T12:23:54;85126.66;;;7.34;79.34
41312;BME280;27061;41.648;24.568;2023-04-05T12:26:21;85068.72;;;6.93;79.92
41312;BME280;27061;41.648;24.568;2023-04-05T12:28:53;85153.88;;;7.59;80.34
41312;BME280;27061;41.648;24.568;2023-04-05T12:31:41;85138.88;;;7.48;80.49
41312;BME280;27061;41.648;24.568;2023-04-05T12:34:10;85147.69;;;7.58;79.85
41312;BME280;27061;41.648;24.568;2023-04-05T12:36:42;85148.28;;;7.63;79.24
41312;BME280;27061;41.648;24.568;2023-04-05T12:39:09;85104.66;;;7.32;78.27
41312;BME280;27061;41.648;24.568;2023-04-05T12:41:36;85087.69;;;7.16;79.49
41312;BME280;27061;41.648;24.568;2023-04-05T12:44:52;85119.75;;;7.35;80.22
41312;BME280;27061;41.648;24.568;2023-04-05T12:47:01;85110.88;;;7.31;79.56
41312;BME280;27061;41.648;24.568;2023-04-05T12:49:29;85139.44;;;7.56;79.26
41312;BME280;27061;41.648;24.568;2023-04-05T12:52:01;85147.03;;;7.56;73.86
41312;BME280;27061;41.648;24.568;2023-04-05T12:54:28;85089.19;;;7.05;75.23
41312;BME280;27061;41.648;24.568;2023-04-05T12:56:57;85150.44;;;7.58;76.00
41312;BME280;27061;41.648;24.568;2023-04-05T12:59:27;85077.59;;;6.98;75.52
41312;BME280;27061;41.648;24.568;2023-04-05T13:01:54;85151.09;;;7.61;74.98
41312;BME280;27061;41.648;24.568;2023-04-05T13:04:21;85157.34;;;7.55;74.83
41312;BME280;27061;41.648;24.568;2023-04-05T13:06:49;85115.06;;;7.28;73.69
41312;BME280;27061;41.648;24.568;2023-04-05T13:09:16;85129.50;;;7.28;74.10
41312;BME280;27061;41.648;24.568;2023-04-05T13:11:43;85156.94;;;7.34;75.94
41312;BME280;27061;41.648;24.568;2023-04-05T13:14:10;85114.69;;;7.03;76.53
41312;BME280;27061;41.648;24.568;2023-04-05T13:16:37;85157.06;;;7.26;76.66
41312;BME280;27061;41.648;24.568;2023-04-05T13:19:04;85151.56;;;7.24;77.18
41312;BME280;27061;41.648;24.568;2023-04-05T13:21:31;85155.09;;;7.17;77.04
41312;BME280;27061;41.648;24.568;2023-04-05T13:23:59;85133.25;;;7.03;76.45
41312;BME280;27061;41.648;24.568;2023-04-05T13:26:27;85129.91;;;6.96;77.89
41312;BME280;27061;41.648;24.568;2023-04-05T13:28:53;85105.94;;;6.88;77.61
41312;BME280;27061;41.648;24.568;2023-04-05T13:31:21;85159.88;;;7.20;76.41
41312;BME280;27061;41.648;24.568;2023-04-05T13:33:48;85129.81;;;7.02;75.21
41312;BME280;27061;41.648;24.568;2023-04-05T13:36:15;85147.75;;;6.99;76.29
41312;BME280;27061;41.648;24.568;2023-04-05T13:38:42;85124.53;;;6.84;76.28
41312;BME280;27061;41.648;24.568;2023-04-05T13:41:09;85139.66;;;6.87;76.69
41312;BME280;27061;41.648;24.568;2023-04-05T13:43:36;85145.94;;;6.77;77.45
41312;BME280;27061;41.648;24.568;2023-04-05T13:46:03;85153.34;;;6.91;77.54
41312;BME280;27061;41.648;24.568;2023-04-05T13:48:30;85158.22;;;6.86;77.74
41312;BME280;27061;41.648;24.568;2023-04-05T13:50:57;85090.72;;;6.34;78.18